sensor_id;sensor_type;location;lat;lon;timestamp;P1;durP1;ratioP1;P2;durP2;ratioP2
9056;SDS011;4563;54.756;9.400;2022-09-13T00:00:56;10.83;;;8.83;;
9056;SDS011;4563;54.756;9.400;2022-09-13T00:03:23;13.40;;;9.40;;
9056;SDS011;4563;54.756;9.400;2022-09-13T00:05:50;10.53;;;8.53;;
9056;SDS011;4563;54.756;9.400;2022-09-13T00:08:17;10.00;;;8.07;;
9056;SDS011;4563;54.756;9.400;2022-09-13T00:10:44;11.17;;;8.53;;
9056;SDS011;4563;54.756;9.400;2022-09-13T00:13:12;9.73;;;8.07;;
9056;SDS011;4563;54.756;9.400;2022-09-13T00:15:43;9.23;;;7.70;;
9056;SDS011;4563;54.756;9.400;2022-09-13T00:18:10;8.90;;;6.77;;
9056;SDS011;4563;54.756;9.400;2022-09-13T00:20:37;8.80;;;7.23;;
9056;SDS011;4563;54.756;9.400;2022-09-13T00:23:04;7.27;;;6.57;;
9056;SDS011;4563;54.756;9.400;2022-09-13T00:25:31;7.90;;;6.50;;
9056;SDS011;4563;54.756;9.400;2022-09-13T00:27:58;8.50;;;6.27;;
9056;SDS011;4563;54.756;9.400;2022-09-13T00:30:25;8.00;;;6.13;;
9056;SDS011;4563;54.756;9.400;2022-09-13T00:32:53;8.00;;;6.10;;
9056;SDS011;4563;54.756;9.400;2022-09-13T00:35:19;8.60;;;6.17;;
9056;SDS011;4563;54.756;9.400;2022-09-13T00:37:47;6.53;;;5.80;;
9056;SDS011;4563;54.756;9.400;2022-09-13T00:40:14;5.70;;;5.20;;
9056;SDS011;4563;54.756;9.400;2022-09-13T00:42:41;6.60;;;6.00;;
9056;SDS011;4563;54.756;9.400;2022-09-13T00:45:13;6.27;;;5.37;;
9056;SDS011;4563;54.756;9.400;2022-09-13T00:47:43;7.67;;;6.00;;
9056;SDS011;4563;54.756;9.400;2022-09-13T00:50:16;8.33;;;6.07;;
9056;SDS011;4563;54.756;9.400;2022-09-13T00:52:47;9.03;;;6.60;;
9056;SDS011;4563;54.756;9.400;2022-09-13T00:55:18;11.37;;;6.57;;
9056;SDS011;4563;54.756;9.400;2022-09-13T00:57:48;11.47;;;7.13;;
9056;SDS011;4563;54.756;9.400;2022-09-13T01:00:16;7.23;;;6.53;;
9056;SDS011;4563;54.756;9.400;2022-09-13T01:02:45;9.90;;;6.63;;
9056;SDS011;4563;54.756;9.400;2022-09-13T01:05:17;10.83;;;7.37;;
9056;SDS011;4563;54.756;9.400;2022-09-13T01:07:48;12.20;;;7.43;;
9056;SDS011;4563;54.756;9.400;2022-09-13T01:10:15;12.37;;;8.13;;
9056;SDS011;4563;54.756;9.400;2022-09-13T01:12:44;10.17;;;9.07;;
9056;SDS011;4563;54.756;9.400;2022-09-13T01:15:17;11.30;;;9.53;;
9056;SDS011;4563;54.756;9.400;2022-09-13T01:17:44;9.47;;;8.23;;
9056;SDS011;4563;54.756;9.400;2022-09-13T01:20:11;12.60;;;9.50;;
9056;SDS011;4563;54.756;9.400;2022-09-13T01:28:54;13.90;;;9.57;;
9056;SDS011;4563;54.756;9.400;2022-09-13T01:31:34;12.37;;;10.23;;
9056;SDS011;4563;54.756;9.400;2022-09-13T01:34:14;15.87;;;10.50;;
9056;SDS011;4563;54.756;9.400;2022-09-13T01:36:53;19.40;;;11.67;;
9056;SDS011;4563;54.756;9.400;2022-09-13T01:39:34;15.40;;;11.00;;
9056;SDS011;4563;54.756;9.400;2022-09-13T01:42:14;17.37;;;11.27;;
9056;SDS011;4563;54.756;9.400;2022-09-13T01:44:58;12.83;;;10.07;;
9056;SDS011;4563;54.756;9.400;2022-09-13T01:47:33;15.03;;;10.37;;
9056;SDS011;4563;54.756;9.400;2022-09-13T01:50:11;11.77;;;9.53;;
9056;SDS011;4563;54.756;9.400;2022-09-13T01:52:44;12.40;;;9.93;;
9056;SDS011;4563;54.756;9.400;2022-09-13T01:55:20;12.47;;;10.23;;
9056;SDS011;4563;54.756;9.400;2022-09-13T01:57:55;11.60;;;8.37;;
9056;SDS011;4563;54.756;9.400;2022-09-13T02:00:31;11.87;;;8.50;;
9056;SDS011;4563;54.756;9.400;2022-09-13T02:03:04;11.20;;;8.50;;
9056;SDS011;4563;54.756;9.400;2022-09-13T02:05:36;9.33;;;8.33;;
9056;SDS011;4563;54.756;9.400;2022-09-13T02:08:08;10.60;;;7.80;;
9056;SDS011;4563;54.756;9.400;2022-09-13T02:10:40;9.40;;;8.10;;
9056;SDS011;4563;54.756;9.400;2022-09-13T02:13:12;8.73;;;7.27;;
9056;SDS011;4563;54.756;9.400;2022-09-13T02:15:43;11.93;;;8.33;;
9056;SDS011;4563;54.756;9.400;2022-09-13T02:18:14;8.20;;;7.03;;
9056;SDS011;4563;54.756;9.400;2022-09-13T02:20:46;7.27;;;4.90;;
9056;SDS011;4563;54.756;9.400;2022-09-13T02:23:16;4.90;;;3.50;;
9056;SDS011;4563;54.756;9.400;2022-09-13T02:25:47;3.27;;;2.80;;
9056;SDS011;4563;54.756;9.400;2022-09-13T02:28:18;2.40;;;2.00;;
9056;SDS011;4563;54.756;9.400;2022-09-13T02:30:49;2.73;;;1.90;;
9056;SDS011;4563;54.756;9.400;2022-09-13T02:33:20;2.50;;;1.47;;
9056;SDS011;4563;54.756;9.400;2022-09-13T02:35:52;3.33;;;1.37;;
9056;SDS011;4563;54.756;9.400;2022-09-13T02:38:25;4.80;;;1.50;;
9056;SDS011;4563;54.756;9.400;2022-09-13T02:40:55;3.27;;;1.00;;
9056;SDS011;4563;54.756;9.400;2022-09-13T02:43:26;2.57;;;1.07;;
9056;SDS011;4563;54.756;9.400;2022-09-13T02:46:02;2.30;;;1.20;;
9056;SDS011;4563;54.756;9.400;2022-09-13T02:48:43;2.30;;;1.10;;
9056;SDS011;4563;54.756;9.400;2022-09-13T02:51:16;4.53;;;1.00;;
9056;SDS011;4563;54.756;9.400;2022-09-13T02:53:52;4.00;;;1.10;;
9056;SDS011;4563;54.756;9.400;2022-09-13T02:56:29;6.23;;;0.90;;
9056;SDS011;4563;54.756;9.400;2022-09-13T02:59:03;4.23;;;1.07;;
9056;SDS011;4563;54.756;9.400;2022-09-13T03:01:36;8.77;;;1.43;;
9056;SDS011;4563;54.756;9.400;2022-09-13T03:04:07;6.53;;;0.70;;
9056;SDS011;4563;54.756;9.400;2022-09-13T03:06:34;8.40;;;1.57;;
9056;SDS011;4563;54.756;9.400;2022-09-13T03:09:01;5.33;;;0.90;;
9056;SDS011;4563;54.756;9.400;2022-09-13T03:11:34;3.83;;;0.70;;
9056;SDS011;4563;54.756;9.400;2022-09-13T03:14:17;3.70;;;0.60;;
9056;SDS011;4563;54.756;9.400;2022-09-13T03:16:55;6.33;;;0.73;;
9056;SDS011;4563;54.756;9.400;2022-09-13T03:19:38;4.77;;;0.70;;
9056;SDS011;4563;54.756;9.400;2022-09-13T03:22:18;4.37;;;0.60;;
9056;SDS011;4563;54.756;9.400;2022-09-13T03:25:00;5.00;;;0.93;;
9056;SDS011;4563;54.756;9.400;2022-09-13T03:27:33;6.07;;;0.90;;
9056;SDS011;4563;54.756;9.400;2022-09-13T03:30:04;6.53;;;0.73;;
9056;SDS011;4563;54.756;9.400;2022-09-13T03:32:34;4.70;;;0.93;;
9056;SDS011;4563;54.756;9.400;2022-09-13T03:35:09;6.73;;;0.63;;
9056;SDS011;4563;54.756;9.400;2022-09-13T03:37:46;5.80;;;0.70;;
9056;SDS011;4563;54.756;9.400;2022-09-13T03:40:22;3.23;;;0.70;;
9056;SDS011;4563;54.756;9.400;2022-09-13T03:43:00;4.57;;;0.73;;
9056;SDS011;4563;54.756;9.400;2022-09-13T03:45:34;3.40;;;0.40;;
9056;SDS011;4563;54.756;9.400;2022-09-13T03:48:04;2.90;;;0.60;;
9056;SDS011;4563;54.756;9.400;2022-09-13T03:50:33;3.87;;;0.70;;
9056;SDS011;4563;54.756;9.400;2022-09-13T03:53:02;11.17;;;0.70;;
9056;SDS011;4563;54.756;9.400;2022-09-13T03:55:32;4.27;;;0.60;;
9056;SDS011;4563;54.756;9.400;2022-09-13T03:58:04;5.77;;;0.50;;
9056;SDS011;4563;54.756;9.400;2022-09-13T04:00:31;5.33;;;0.60;;
9056;SDS011;4563;54.756;9.400;2022-09-13T04:02:57;6.87;;;1.47;;
9056;SDS011;4563;54.756;9.400;2022-09-13T04:05:24;3.13;;;0.97;;
9056;SDS011;4563;54.756;9.400;2022-09-13T04:07:52;5.83;;;0.80;;
9056;SDS011;4563;54.756;9.400;2022-09-13T04:10:20;4.37;;;1.47;;
9056;SDS011;4563;54.756;9.400;2022-09-13T04:12:48;7.03;;;0.90;;
9056;SDS011;4563;54.756;9.400;2022-09-13T04:15:16;2.20;;;0.50;;
9056;SDS011;4563;54.756;9.400;2022-09-13T04:17:43;0.93;;;0.40;;
9056;SDS011;4563;54.756;9.400;2022-09-13T04:20:10;5.17;;;0.50;;
9056;SDS011;4563;54.756;9.400;2022-09-13T04:22:36;4.10;;;0.77;;
9056;SDS011;4563;54.756;9.400;2022-09-13T04:25:05;6.23;;;0.67;;
9056;SDS011;4563;54.756;9.400;2022-09-13T04:27:32;2.73;;;0.50;;
9056;SDS011;4563;54.756;9.400;2022-09-13T04:30:00;4.13;;;0.67;;
9056;SDS011;4563;54.756;9.400;2022-09-13T04:32:27;3.27;;;0.50;;
9056;SDS011;4563;54.756;9.400;2022-09-13T04:34:54;3.37;;;0.47;;
9056;SDS011;4563;54.756;9.400;2022-09-13T04:37:21;4.30;;;0.60;;
9056;SDS011;4563;54.756;9.400;2022-09-13T04:39:48;2.77;;;0.30;;
9056;SDS011;4563;54.756;9.400;2022-09-13T04:42:16;6.83;;;1.20;;
9056;SDS011;4563;54.756;9.400;2022-09-13T04:44:44;2.20;;;0.50;;
9056;SDS011;4563;54.756;9.400;2022-09-13T04:47:14;3.30;;;0.40;;
9056;SDS011;4563;54.756;9.400;2022-09-13T04:49:41;4.10;;;0.90;;
9056;SDS011;4563;54.756;9.400;2022-09-13T04:52:07;4.07;;;0.70;;
9056;SDS011;4563;54.756;9.400;2022-09-13T04:54:34;9.20;;;0.67;;
9056;SDS011;4563;54.756;9.400;2022-09-13T04:57:02;4.97;;;0.50;;
9056;SDS011;4563;54.756;9.400;2022-09-13T04:59:30;7.67;;;0.97;;
9056;SDS011;4563;54.756;9.400;2022-09-13T05:01:57;7.93;;;0.60;;
9056;SDS011;4563;54.756;9.400;2022-09-13T05:04:24;7.67;;;0.63;;
9056;SDS011;4563;54.756;9.400;2022-09-13T05:06:51;4.10;;;0.63;;
9056;SDS011;4563;54.756;9.400;2022-09-13T05:09:17;6.40;;;0.90;;
9056;SDS011;4563;54.756;9.400;2022-09-13T05:11:44;2.13;;;0.50;;
9056;SDS011;4563;54.756;9.400;2022-09-13T05:14:11;4.67;;;0.60;;
9056;SDS011;4563;54.756;9.400;2022-09-13T05:16:39;4.43;;;0.40;;
9056;SDS011;4563;54.756;9.400;2022-09-13T05:19:06;4.20;;;0.60;;
9056;SDS011;4563;54.756;9.400;2022-09-13T05:21:34;2.80;;;0.70;;
9056;SDS011;4563;54.756;9.400;2022-09-13T05:24:01;6.93;;;0.60;;
9056;SDS011;4563;54.756;9.400;2022-09-13T05:26:28;5.73;;;0.60;;
9056;SDS011;4563;54.756;9.400;2022-09-13T05:28:56;5.43;;;1.13;;
9056;SDS011;4563;54.756;9.400;2022-09-13T05:31:24;7.20;;;1.23;;
9056;SDS011;4563;54.756;9.400;2022-09-13T05:33:57;9.13;;;0.60;;
9056;SDS011;4563;54.756;9.400;2022-09-13T05:36:25;4.30;;;0.60;;
9056;SDS011;4563;54.756;9.400;2022-09-13T05:38:52;4.43;;;0.57;;
9056;SDS011;4563;54.756;9.400;2022-09-13T05:41:19;2.73;;;0.70;;
9056;SDS011;4563;54.756;9.400;2022-09-13T05:43:46;2.73;;;0.50;;
9056;SDS011;4563;54.756;9.400;2022-09-13T05:46:13;2.57;;;0.63;;
9056;SDS011;4563;54.756;9.400;2022-09-13T05:48:42;4.83;;;0.67;;
9056;SDS011;4563;54.756;9.400;2022-09-13T05:51:13;8.30;;;0.77;;
9056;SDS011;4563;54.756;9.400;2022-09-13T05:53:42;6.80;;;0.80;;
9056;SDS011;4563;54.756;9.400;2022-09-13T05:56:10;5.67;;;0.63;;
9056;SDS011;4563;54.756;9.400;2022-09-13T05:58:38;7.17;;;0.60;;
9056;SDS011;4563;54.756;9.400;2022-09-13T06:01:06;3.70;;;0.77;;
9056;SDS011;4563;54.756;9.400;2022-09-13T06:03:33;6.27;;;0.97;;
9056;SDS011;4563;54.756;9.400;2022-09-13T06:06:01;10.40;;;0.77;;
9056;SDS011;4563;54.756;9.400;2022-09-13T06:08:30;6.23;;;1.17;;
9056;SDS011;4563;54.756;9.400;2022-09-13T06:11:00;4.57;;;0.97;;
9056;SDS011;4563;54.756;9.400;2022-09-13T06:13:28;4.87;;;0.80;;
9056;SDS011;4563;54.756;9.400;2022-09-13T06:15:56;5.00;;;0.43;;
9056;SDS011;4563;54.756;9.400;2022-09-13T06:18:24;3.73;;;0.43;;
9056;SDS011;4563;54.756;9.400;2022-09-13T06:20:56;4.53;;;0.70;;
9056;SDS011;4563;54.756;9.400;2022-09-13T06:23:23;2.00;;;0.47;;
9056;SDS011;4563;54.756;9.400;2022-09-13T06:25:59;3.83;;;0.37;;
9056;SDS011;4563;54.756;9.400;2022-09-13T06:28:26;5.03;;;0.60;;
9056;SDS011;4563;54.756;9.400;2022-09-13T06:30:58;4.30;;;0.53;;
9056;SDS011;4563;54.756;9.400;2022-09-13T06:33:25;6.37;;;0.90;;
9056;SDS011;4563;54.756;9.400;2022-09-13T06:35:52;3.13;;;1.00;;
9056;SDS011;4563;54.756;9.400;2022-09-13T06:38:19;3.43;;;0.50;;
9056;SDS011;4563;54.756;9.400;2022-09-13T06:40:46;1.90;;;0.30;;
9056;SDS011;4563;54.756;9.400;2022-09-13T06:43:14;3.50;;;0.50;;
9056;SDS011;4563;54.756;9.400;2022-09-13T06:45:41;5.93;;;0.67;;
9056;SDS011;4563;54.756;9.400;2022-09-13T06:48:08;3.67;;;0.43;;
9056;SDS011;4563;54.756;9.400;2022-09-13T06:50:35;5.33;;;0.80;;
9056;SDS011;4563;54.756;9.400;2022-09-13T06:53:02;3.83;;;0.50;;
9056;SDS011;4563;54.756;9.400;2022-09-13T06:55:28;4.00;;;0.70;;
9056;SDS011;4563;54.756;9.400;2022-09-13T06:57:55;4.93;;;0.70;;
9056;SDS011;4563;54.756;9.400;2022-09-13T07:00:25;9.90;;;0.60;;
9056;SDS011;4563;54.756;9.400;2022-09-13T07:02:52;5.57;;;0.67;;
9056;SDS011;4563;54.756;9.400;2022-09-13T07:05:19;10.63;;;6.40;;
9056;SDS011;4563;54.756;9.400;2022-09-13T07:07:46;6.17;;;1.27;;
9056;SDS011;4563;54.756;9.400;2022-09-13T07:10:13;3.10;;;0.67;;
9056;SDS011;4563;54.756;9.400;2022-09-13T07:12:40;7.90;;;0.70;;
9056;SDS011;4563;54.756;9.400;2022-09-13T07:15:07;4.57;;;0.40;;
9056;SDS011;4563;54.756;9.400;2022-09-13T07:17:36;2.40;;;0.60;;
9056;SDS011;4563;54.756;9.400;2022-09-13T07:20:03;5.20;;;0.60;;
9056;SDS011;4563;54.756;9.400;2022-09-13T07:22:32;7.37;;;0.57;;
9056;SDS011;4563;54.756;9.400;2022-09-13T07:24:59;3.80;;;0.50;;
9056;SDS011;4563;54.756;9.400;2022-09-13T07:27:26;4.57;;;0.97;;
9056;SDS011;4563;54.756;9.400;2022-09-13T07:29:55;7.03;;;0.80;;
9056;SDS011;4563;54.756;9.400;2022-09-13T07:32:21;5.93;;;0.80;;
9056;SDS011;4563;54.756;9.400;2022-09-13T07:34:50;5.43;;;1.00;;
9056;SDS011;4563;54.756;9.400;2022-09-13T07:37:17;9.57;;;1.67;;
9056;SDS011;4563;54.756;9.400;2022-09-13T07:39:43;4.03;;;1.00;;
9056;SDS011;4563;54.756;9.400;2022-09-13T07:42:10;3.50;;;0.90;;
9056;SDS011;4563;54.756;9.400;2022-09-13T07:44:37;4.67;;;0.70;;
9056;SDS011;4563;54.756;9.400;2022-09-13T07:47:04;9.97;;;1.03;;
9056;SDS011;4563;54.756;9.400;2022-09-13T07:49:31;4.37;;;0.83;;
9056;SDS011;4563;54.756;9.400;2022-09-13T07:52:00;4.97;;;0.50;;
9056;SDS011;4563;54.756;9.400;2022-09-13T07:54:28;4.67;;;0.43;;
9056;SDS011;4563;54.756;9.400;2022-09-13T07:56:55;4.53;;;0.60;;
9056;SDS011;4563;54.756;9.400;2022-09-13T07:59:21;3.07;;;0.63;;
9056;SDS011;4563;54.756;9.400;2022-09-13T08:01:49;7.23;;;0.77;;
9056;SDS011;4563;54.756;9.400;2022-09-13T08:04:17;3.73;;;0.60;;
9056;SDS011;4563;54.756;9.400;2022-09-13T08:06:45;5.17;;;0.47;;
9056;SDS011;4563;54.756;9.400;2022-09-13T08:09:14;6.00;;;0.73;;
9056;SDS011;4563;54.756;9.400;2022-09-13T08:11:42;3.23;;;0.53;;
9056;SDS011;4563;54.756;9.400;2022-09-13T08:14:11;5.13;;;2.60;;
9056;SDS011;4563;54.756;9.400;2022-09-13T08:16:40;4.03;;;0.50;;
9056;SDS011;4563;54.756;9.400;2022-09-13T08:19:07;6.70;;;0.47;;
9056;SDS011;4563;54.756;9.400;2022-09-13T08:21:38;7.23;;;0.93;;
9056;SDS011;4563;54.756;9.400;2022-09-13T08:24:07;2.10;;;0.40;;
9056;SDS011;4563;54.756;9.400;2022-09-13T08:26:39;10.57;;;0.80;;
9056;SDS011;4563;54.756;9.400;2022-09-13T08:29:06;2.53;;;0.70;;
9056;SDS011;4563;54.756;9.400;2022-09-13T08:31:33;9.63;;;1.13;;
9056;SDS011;4563;54.756;9.400;2022-09-13T08:34:00;7.33;;;1.00;;
9056;SDS011;4563;54.756;9.400;2022-09-13T08:36:27;5.87;;;0.50;;
9056;SDS011;4563;54.756;9.400;2022-09-13T08:38:55;5.33;;;0.50;;
9056;SDS011;4563;54.756;9.400;2022-09-13T08:41:26;6.53;;;0.60;;
9056;SDS011;4563;54.756;9.400;2022-09-13T08:44:05;6.37;;;0.60;;
9056;SDS011;4563;54.756;9.400;2022-09-13T08:46:38;8.07;;;0.57;;
9056;SDS011;4563;54.756;9.400;2022-09-13T08:49:10;4.43;;;0.80;;
9056;SDS011;4563;54.756;9.400;2022-09-13T08:51:44;10.17;;;1.10;;
9056;SDS011;4563;54.756;9.400;2022-09-13T08:54:13;4.03;;;0.60;;
9056;SDS011;4563;54.756;9.400;2022-09-13T08:56:43;8.03;;;0.83;;
9056;SDS011;4563;54.756;9.400;2022-09-13T08:59:22;8.70;;;1.23;;
9056;SDS011;4563;54.756;9.400;2022-09-13T09:01:56;5.27;;;0.60;;
9056;SDS011;4563;54.756;9.400;2022-09-13T09:04:36;3.23;;;0.47;;
9056;SDS011;4563;54.756;9.400;2022-09-13T09:07:09;4.57;;;0.60;;
9056;SDS011;4563;54.756;9.400;2022-09-13T09:09:39;8.40;;;1.23;;
9056;SDS011;4563;54.756;9.400;2022-09-13T09:12:13;5.53;;;0.90;;
9056;SDS011;4563;54.756;9.400;2022-09-13T09:14:48;4.03;;;1.07;;
9056;SDS011;4563;54.756;9.400;2022-09-13T09:17:24;5.10;;;2.03;;
9056;SDS011;4563;54.756;9.400;2022-09-13T09:19:55;6.63;;;0.80;;
9056;SDS011;4563;54.756;9.400;2022-09-13T09:22:29;5.60;;;0.57;;
9056;SDS011;4563;54.756;9.400;2022-09-13T09:24:59;4.37;;;0.50;;
9056;SDS011;4563;54.756;9.400;2022-09-13T09:27:28;5.93;;;0.77;;
9056;SDS011;4563;54.756;9.400;2022-09-13T09:29:57;2.73;;;0.60;;
9056;SDS011;4563;54.756;9.400;2022-09-13T09:32:40;6.57;;;0.70;;
9056;SDS011;4563;54.756;9.400;2022-09-13T09:35:32;5.97;;;0.60;;
9056;SDS011;4563;54.756;9.400;2022-09-13T09:38:27;3.47;;;0.50;;
9056;SDS011;4563;54.756;9.400;2022-09-13T09:40:59;9.90;;;1.00;;
9056;SDS011;4563;54.756;9.400;2022-09-13T09:43:30;5.20;;;0.67;;
9056;SDS011;4563;54.756;9.400;2022-09-13T09:46:02;4.13;;;0.40;;
9056;SDS011;4563;54.756;9.400;2022-09-13T09:48:34;4.90;;;0.50;;
9056;SDS011;4563;54.756;9.400;2022-09-13T09:51:06;3.70;;;0.60;;
9056;SDS011;4563;54.756;9.400;2022-09-13T09:53:36;3.70;;;0.60;;
9056;SDS011;4563;54.756;9.400;2022-09-13T09:56:14;4.20;;;0.60;;
9056;SDS011;4563;54.756;9.400;2022-09-13T09:58:49;5.77;;;0.80;;
9056;SDS011;4563;54.756;9.400;2022-09-13T10:01:22;7.30;;;1.10;;
9056;SDS011;4563;54.756;9.400;2022-09-13T10:03:53;5.13;;;0.70;;
9056;SDS011;4563;54.756;9.400;2022-09-13T10:06:26;5.77;;;0.70;;
9056;SDS011;4563;54.756;9.400;2022-09-13T10:08:56;5.33;;;0.90;;
9056;SDS011;4563;54.756;9.400;2022-09-13T10:11:38;7.20;;;0.83;;
9056;SDS011;4563;54.756;9.400;2022-09-13T10:14:08;6.30;;;0.80;;
9056;SDS011;4563;54.756;9.400;2022-09-13T10:17:05;4.97;;;0.70;;
9056;SDS011;4563;54.756;9.400;2022-09-13T10:19:40;6.37;;;0.70;;
9056;SDS011;4563;54.756;9.400;2022-09-13T10:22:15;6.30;;;0.67;;
9056;SDS011;4563;54.756;9.400;2022-09-13T10:24:42;3.43;;;0.50;;
9056;SDS011;4563;54.756;9.400;2022-09-13T10:27:17;6.90;;;0.90;;
9056;SDS011;4563;54.756;9.400;2022-09-13T10:29:48;1.53;;;0.60;;
9056;SDS011;4563;54.756;9.400;2022-09-13T10:32:20;3.00;;;0.50;;
9056;SDS011;4563;54.756;9.400;2022-09-13T10:34:48;6.43;;;0.50;;
9056;SDS011;4563;54.756;9.400;2022-09-13T10:37:16;4.87;;;0.60;;
9056;SDS011;4563;54.756;9.400;2022-09-13T10:39:54;5.63;;;0.73;;
9056;SDS011;4563;54.756;9.400;2022-09-13T10:42:25;8.43;;;0.73;;
9056;SDS011;4563;54.756;9.400;2022-09-13T10:44:54;2.40;;;0.50;;
9056;SDS011;4563;54.756;9.400;2022-09-13T10:47:25;4.60;;;0.70;;
9056;SDS011;4563;54.756;9.400;2022-09-13T10:49:57;7.47;;;0.90;;
9056;SDS011;4563;54.756;9.400;2022-09-13T10:52:41;7.57;;;1.10;;
9056;SDS011;4563;54.756;9.400;2022-09-13T10:55:22;3.17;;;0.70;;
9056;SDS011;4563;54.756;9.400;2022-09-13T10:58:17;4.20;;;0.60;;
9056;SDS011;4563;54.756;9.400;2022-09-13T11:00:48;8.43;;;1.30;;
9056;SDS011;4563;54.756;9.400;2022-09-13T11:06:47;6.30;;;1.00;;
9056;SDS011;4563;54.756;9.400;2022-09-13T11:09:23;5.40;;;0.83;;
9056;SDS011;4563;54.756;9.400;2022-09-13T11:11:58;4.43;;;0.70;;
9056;SDS011;4563;54.756;9.400;2022-09-13T11:14:37;7.83;;;0.73;;
9056;SDS011;4563;54.756;9.400;2022-09-13T11:17:15;3.37;;;0.73;;
9056;SDS011;4563;54.756;9.400;2022-09-13T11:20:00;4.13;;;0.63;;
9056;SDS011;4563;54.756;9.400;2022-09-13T11:22:49;5.47;;;0.50;;
9056;SDS011;4563;54.756;9.400;2022-09-13T11:25:28;5.63;;;1.00;;
9056;SDS011;4563;54.756;9.400;2022-09-13T11:28:16;5.00;;;0.60;;
9056;SDS011;4563;54.756;9.400;2022-09-13T11:30:56;4.87;;;0.90;;
9056;SDS011;4563;54.756;9.400;2022-09-13T11:33:38;4.97;;;0.73;;
9056;SDS011;4563;54.756;9.400;2022-09-13T11:36:28;1.90;;;0.60;;
9056;SDS011;4563;54.756;9.400;2022-09-13T11:39:10;4.20;;;0.90;;
9056;SDS011;4563;54.756;9.400;2022-09-13T11:41:46;3.60;;;0.60;;
9056;SDS011;4563;54.756;9.400;2022-09-13T11:44:31;7.03;;;0.80;;
9056;SDS011;4563;54.756;9.400;2022-09-13T11:47:20;7.03;;;0.70;;
9056;SDS011;4563;54.756;9.400;2022-09-13T11:50:09;6.37;;;0.70;;
9056;SDS011;4563;54.756;9.400;2022-09-13T11:52:48;11.23;;;1.10;;
9056;SDS011;4563;54.756;9.400;2022-09-13T11:55:24;4.97;;;0.80;;
9056;SDS011;4563;54.756;9.400;2022-09-13T11:57:56;8.27;;;0.63;;
9056;SDS011;4563;54.756;9.400;2022-09-13T12:00:28;5.20;;;0.60;;
9056;SDS011;4563;54.756;9.400;2022-09-13T12:03:02;6.80;;;0.63;;
9056;SDS011;4563;54.756;9.400;2022-09-13T12:05:38;2.87;;;0.63;;
9056;SDS011;4563;54.756;9.400;2022-09-13T12:08:10;6.57;;;0.67;;
9056;SDS011;4563;54.756;9.400;2022-09-13T12:10:44;2.90;;;0.50;;
9056;SDS011;4563;54.756;9.400;2022-09-13T12:13:15;4.50;;;0.70;;
9056;SDS011;4563;54.756;9.400;2022-09-13T12:15:46;3.63;;;0.73;;
9056;SDS011;4563;54.756;9.400;2022-09-13T12:18:16;6.73;;;0.60;;
9056;SDS011;4563;54.756;9.400;2022-09-13T12:20:48;4.40;;;0.57;;
9056;SDS011;4563;54.756;9.400;2022-09-13T12:23:18;2.97;;;0.47;;
9056;SDS011;4563;54.756;9.400;2022-09-13T12:25:57;6.87;;;0.73;;
9056;SDS011;4563;54.756;9.400;2022-09-13T12:28:28;6.93;;;0.60;;
9056;SDS011;4563;54.756;9.400;2022-09-13T12:31:01;2.63;;;0.47;;
9056;SDS011;4563;54.756;9.400;2022-09-13T12:33:32;1.33;;;0.40;;
9056;SDS011;4563;54.756;9.400;2022-09-13T12:36:15;3.43;;;0.50;;
9056;SDS011;4563;54.756;9.400;2022-09-13T12:39:18;0.93;;;0.30;;
9056;SDS011;4563;54.756;9.400;2022-09-13T12:42:02;4.07;;;0.43;;
9056;SDS011;4563;54.756;9.400;2022-09-13T12:44:48;2.73;;;0.57;;
9056;SDS011;4563;54.756;9.400;2022-09-13T12:47:36;4.10;;;0.70;;
9056;SDS011;4563;54.756;9.400;2022-09-13T12:50:19;2.90;;;0.60;;
9056;SDS011;4563;54.756;9.400;2022-09-13T12:53:09;3.97;;;0.70;;
9056;SDS011;4563;54.756;9.400;2022-09-13T12:55:52;2.63;;;0.60;;
9056;SDS011;4563;54.756;9.400;2022-09-13T12:58:37;8.57;;;0.70;;
9056;SDS011;4563;54.756;9.400;2022-09-13T13:01:28;4.93;;;0.60;;
9056;SDS011;4563;54.756;9.400;2022-09-13T13:03:57;2.63;;;0.40;;
9056;SDS011;4563;54.756;9.400;2022-09-13T13:06:29;6.00;;;0.80;;
9056;SDS011;4563;54.756;9.400;2022-09-13T13:09:00;1.40;;;0.30;;
9056;SDS011;4563;54.756;9.400;2022-09-13T13:11:39;2.57;;;0.47;;
9056;SDS011;4563;54.756;9.400;2022-09-13T13:23:17;3.73;;;0.60;;
9056;SDS011;4563;54.756;9.400;2022-09-13T13:29:13;2.73;;;0.50;;
9056;SDS011;4563;54.756;9.400;2022-09-13T13:31:42;1.67;;;0.33;;
9056;SDS011;4563;54.756;9.400;2022-09-13T13:34:32;3.50;;;0.67;;
9056;SDS011;4563;54.756;9.400;2022-09-13T13:37:20;3.67;;;0.40;;
9056;SDS011;4563;54.756;9.400;2022-09-13T13:43:14;1.33;;;0.37;;
9056;SDS011;4563;54.756;9.400;2022-09-13T13:48:49;4.60;;;0.50;;
9056;SDS011;4563;54.756;9.400;2022-09-13T13:51:20;5.30;;;0.67;;
9056;SDS011;4563;54.756;9.400;2022-09-13T13:53:58;4.03;;;0.83;;
9056;SDS011;4563;54.756;9.400;2022-09-13T13:56:32;3.33;;;0.40;;
9056;SDS011;4563;54.756;9.400;2022-09-13T13:59:11;1.63;;;0.50;;
9056;SDS011;4563;54.756;9.400;2022-09-13T14:01:43;1.40;;;0.30;;
9056;SDS011;4563;54.756;9.400;2022-09-13T14:07:16;1.73;;;0.27;;
9056;SDS011;4563;54.756;9.400;2022-09-13T14:10:03;4.70;;;0.40;;
9056;SDS011;4563;54.756;9.400;2022-09-13T14:12:39;3.87;;;0.60;;
9056;SDS011;4563;54.756;9.400;2022-09-13T14:15:33;3.63;;;0.50;;
9056;SDS011;4563;54.756;9.400;2022-09-13T14:21:16;4.37;;;0.53;;
9056;SDS011;4563;54.756;9.400;2022-09-13T14:23:45;3.73;;;0.43;;
9056;SDS011;4563;54.756;9.400;2022-09-13T14:26:14;4.87;;;0.60;;
9056;SDS011;4563;54.756;9.400;2022-09-13T14:28:41;3.60;;;0.77;;
9056;SDS011;4563;54.756;9.400;2022-09-13T14:31:13;4.83;;;0.70;;
9056;SDS011;4563;54.756;9.400;2022-09-13T14:33:44;5.10;;;0.50;;
9056;SDS011;4563;54.756;9.400;2022-09-13T14:36:15;4.20;;;0.50;;
9056;SDS011;4563;54.756;9.400;2022-09-13T14:38:46;3.80;;;1.03;;
9056;SDS011;4563;54.756;9.400;2022-09-13T14:41:16;4.03;;;0.63;;
9056;SDS011;4563;54.756;9.400;2022-09-13T14:43:45;4.43;;;0.53;;
9056;SDS011;4563;54.756;9.400;2022-09-13T14:46:14;5.00;;;0.90;;
9056;SDS011;4563;54.756;9.400;2022-09-13T14:48:48;3.20;;;0.80;;
9056;SDS011;4563;54.756;9.400;2022-09-13T14:51:19;5.50;;;0.80;;
9056;SDS011;4563;54.756;9.400;2022-09-13T14:53:50;2.53;;;0.60;;
9056;SDS011;4563;54.756;9.400;2022-09-13T14:56:26;4.27;;;0.53;;
9056;SDS011;4563;54.756;9.400;2022-09-13T14:58:57;3.40;;;0.40;;
9056;SDS011;4563;54.756;9.400;2022-09-13T15:01:26;1.87;;;0.67;;
9056;SDS011;4563;54.756;9.400;2022-09-13T15:03:55;2.03;;;0.33;;
9056;SDS011;4563;54.756;9.400;2022-09-13T15:06:24;5.30;;;0.67;;
9056;SDS011;4563;54.756;9.400;2022-09-13T15:08:55;4.77;;;0.77;;
9056;SDS011;4563;54.756;9.400;2022-09-13T15:11:30;6.90;;;0.57;;
9056;SDS011;4563;54.756;9.400;2022-09-13T15:16:52;3.93;;;0.50;;
9056;SDS011;4563;54.756;9.400;2022-09-13T15:19:27;4.03;;;0.80;;
9056;SDS011;4563;54.756;9.400;2022-09-13T15:24:49;2.30;;;0.30;;
9056;SDS011;4563;54.756;9.400;2022-09-13T15:27:23;2.00;;;0.53;;
9056;SDS011;4563;54.756;9.400;2022-09-13T15:29:52;2.30;;;0.40;;
9056;SDS011;4563;54.756;9.400;2022-09-13T15:32:22;0.50;;;0.20;;
9056;SDS011;4563;54.756;9.400;2022-09-13T15:34:57;0.63;;;0.27;;
9056;SDS011;4563;54.756;9.400;2022-09-13T15:37:33;2.90;;;0.30;;
9056;SDS011;4563;54.756;9.400;2022-09-13T15:40:06;0.47;;;0.23;;
9056;SDS011;4563;54.756;9.400;2022-09-13T15:42:41;3.83;;;0.17;;
9056;SDS011;4563;54.756;9.400;2022-09-13T15:45:10;4.53;;;0.40;;
9056;SDS011;4563;54.756;9.400;2022-09-13T15:47:37;1.20;;;0.30;;
9056;SDS011;4563;54.756;9.400;2022-09-13T15:50:04;1.80;;;0.20;;
9056;SDS011;4563;54.756;9.400;2022-09-13T15:52:32;1.50;;;0.30;;
9056;SDS011;4563;54.756;9.400;2022-09-13T15:54:59;3.63;;;0.53;;
9056;SDS011;4563;54.756;9.400;2022-09-13T15:57:27;2.97;;;0.53;;
9056;SDS011;4563;54.756;9.400;2022-09-13T15:59:56;6.57;;;0.50;;
9056;SDS011;4563;54.756;9.400;2022-09-13T16:02:24;4.27;;;0.50;;
9056;SDS011;4563;54.756;9.400;2022-09-13T16:04:52;2.57;;;0.50;;
9056;SDS011;4563;54.756;9.400;2022-09-13T16:07:19;3.07;;;0.50;;
9056;SDS011;4563;54.756;9.400;2022-09-13T16:09:47;4.60;;;0.60;;
9056;SDS011;4563;54.756;9.400;2022-09-13T16:12:14;3.33;;;0.40;;
9056;SDS011;4563;54.756;9.400;2022-09-13T16:14:42;3.10;;;0.53;;
9056;SDS011;4563;54.756;9.400;2022-09-13T16:17:11;1.90;;;0.37;;
9056;SDS011;4563;54.756;9.400;2022-09-13T16:19:42;4.00;;;0.50;;
9056;SDS011;4563;54.756;9.400;2022-09-13T16:22:08;4.87;;;0.73;;
9056;SDS011;4563;54.756;9.400;2022-09-13T16:24:35;4.73;;;0.73;;